Hlavní strana
METAR-TAF:

METAR-TAF

Letiště :

Letiště Nikos Kazantzakis

Iraklio, Řecko

zeměpisná šířka: 35-20N, zeměpisná délka: 025-11E, výška: 37 m

Aktuální stav počasí

Zpráva byla vytvořena před 41 minutami, v 04:20 UTC
Bezvětří
Teplota 7°C
Vlhkost vzduchu 81%
Tlak 1028 hPa
Viditelnost 10 km a více
Skoro jasno ve výšce 2500 ft

METAR: LGIR 250420Z 00000KT 9999 FEW025 07/04 Q1028 NOSIG

Čas: 07:01 (05:01 UTC)

Předpověď počasí

Zpráva byla vytvořena před 6 hodinami a 1 minutami, v 23:00 UTC
Předpověď platná od 25 v 00 UTC do 25 v 24 UTC
vítr z různých směrů 4 kt
Viditelnost 10 km a více
Skoro jasno ve výšce 2500 ft

TAF: LGIR 242300Z 2500/2524 VRB04KT 9999 FEW025

Stav a předpovědi počasí z více než 4 000 letišť (zprávy METAR a TAF).

Červené a žluté tečky na mapě představují dostupné meteorologické stanice.

Když kurzor umístíte na tečku, zobrazí se název stanice.

Pak kliknutím zobrazíte stav a předpověď počasí.

Chcete-li změnit mapu, kliknutím na zelené tlačítko se znaménkem +mapu přiblížíte, kliknutím na zelené tlačítko se znaménkem – mapu oddálíte a kliknutím na zelené šipky přejdete na sousední mapy.


METAR-TAF: